createdAt,value
2022-10-23T00:02:02.577Z,12.24
2022-10-23T00:04:29.313Z,12.27
2022-10-23T00:06:56.040Z,12.35
2022-10-23T00:09:24.532Z,12.46
2022-10-23T00:11:52.649Z,12.56
2022-10-23T00:14:26.236Z,12.62
2022-10-23T00:16:52.800Z,12.66
2022-10-23T00:19:19.665Z,12.69
2022-10-23T00:21:54.527Z,12.68
2022-10-23T00:24:24.283Z,12.64
2022-10-23T00:26:51.032Z,12.57
2022-10-23T00:29:17.745Z,12.45
2022-10-23T00:31:44.253Z,12.35
2022-10-23T00:34:11.113Z,12.34
2022-10-23T00:36:43.278Z,12.38
2022-10-23T00:39:09.760Z,12.46
2022-10-23T00:41:36.268Z,12.57
2022-10-23T00:44:38.028Z,12.60
2022-10-23T00:47:04.716Z,12.61
2022-10-23T00:49:33.537Z,12.59
2022-10-23T00:52:04.985Z,12.58
2022-10-23T00:54:34.563Z,12.54
2022-10-23T00:57:02.769Z,12.53
2022-10-23T00:59:32.115Z,12.67
2022-10-23T01:01:59.448Z,12.75
2022-10-23T01:04:27.691Z,12.76
2022-10-23T01:07:33.462Z,12.81
2022-10-23T01:10:13.996Z,12.90
2022-10-23T01:12:49.581Z,12.95
2022-10-23T01:15:41.817Z,12.96
2022-10-23T01:21:05.415Z,12.91
2022-10-23T01:24:01.135Z,12.89
2022-10-23T01:27:11.556Z,12.89
2022-10-23T01:29:59.436Z,12.82
2022-10-23T01:33:00.962Z,12.85
2022-10-23T01:35:38.106Z,12.87
2022-10-23T01:38:13.762Z,12.83
2022-10-23T01:40:48.781Z,12.85
2022-10-23T01:43:27.730Z,12.87
2022-10-23T01:46:05.339Z,12.84
2022-10-23T01:48:33.618Z,12.81
2022-10-23T01:51:04.714Z,12.77
2022-10-23T01:53:38.130Z,12.71
2022-10-23T01:56:09.746Z,12.71
2022-10-23T01:58:37.967Z,12.69
2022-10-23T02:01:07.902Z,12.62
2022-10-23T02:03:37.386Z,12.58
2022-10-23T02:06:06.386Z,12.50
2022-10-23T02:08:33.079Z,12.45
2022-10-23T02:11:14.523Z,12.45
2022-10-23T02:13:59.055Z,12.48
2022-10-23T02:16:42.653Z,12.50
2022-10-23T02:19:29.395Z,12.49
2022-10-23T02:22:04.029Z,12.49
2022-10-23T02:24:39.698Z,12.49
2022-10-23T02:27:13.529Z,12.45
2022-10-23T02:29:50.653Z,12.45
2022-10-23T02:32:20.271Z,12.44
2022-10-23T02:34:48.015Z,12.44
2022-10-23T02:37:18.656Z,12.40
2022-10-23T02:39:45.616Z,12.42
2022-10-23T02:42:22.518Z,12.39
2022-10-23T02:45:12.630Z,12.37
2022-10-23T02:47:58.796Z,12.35
2022-10-23T02:50:29.241Z,12.34
2022-10-23T02:53:14.532Z,12.37
2022-10-23T02:55:55.912Z,12.35
2022-10-23T02:58:32.418Z,12.33
2022-10-23T03:01:10.570Z,12.39
2022-10-23T03:03:45.793Z,12.47
2022-10-23T03:06:12.954Z,12.49
2022-10-23T03:08:44.514Z,12.50
2022-10-23T03:11:13.378Z,12.56
2022-10-23T03:13:42.199Z,12.70
2022-10-23T03:16:08.694Z,12.66
2022-10-23T03:18:35.805Z,12.76
2022-10-23T03:21:02.414Z,12.79
2022-10-23T03:23:28.892Z,12.77
2022-10-23T03:26:01.940Z,12.81
2022-10-23T03:28:28.501Z,12.77
2022-10-23T03:30:56.031Z,12.73
2022-10-23T03:33:24.570Z,12.65
2022-10-23T03:35:51.090Z,12.64
2022-10-23T03:38:17.881Z,12.63
2022-10-23T03:40:46.201Z,12.63
2022-10-23T03:43:12.714Z,12.62
2022-10-23T03:45:39.313Z,12.62
2022-10-23T03:48:08.601Z,12.53
2022-10-23T03:50:35.838Z,12.50
2022-10-23T03:53:02.323Z,12.48
2022-10-23T03:55:29.059Z,12.46
2022-10-23T04:00:23.358Z,12.47
2022-10-23T04:02:51.686Z,12.44
2022-10-23T04:05:18.189Z,12.38
2022-10-23T04:07:47.011Z,12.44
2022-10-23T04:10:15.256Z,12.45
2022-10-23T04:12:42.285Z,12.44
2022-10-23T04:15:09.224Z,12.44
2022-10-23T04:17:42.349Z,12.42
2022-10-23T04:20:09.411Z,12.38
2022-10-23T04:22:35.874Z,12.28
2022-10-23T04:25:02.674Z,12.15
2022-10-23T04:27:29.189Z,12.03
2022-10-23T04:29:59.124Z,11.86
2022-10-23T04:32:26.357Z,11.70
2022-10-23T04:34:52.870Z,11.54
2022-10-23T04:37:19.703Z,11.40
2022-10-23T04:39:51.436Z,11.30
2022-10-23T04:42:17.985Z,11.18
2022-10-23T04:44:44.486Z,11.18
2022-10-23T04:47:11.073Z,11.15
2022-10-23T04:49:37.819Z,11.15
2022-10-23T04:52:04.440Z,11.18
2022-10-23T04:54:36.797Z,11.27
2022-10-23T04:57:03.400Z,11.34
2022-10-23T04:59:29.947Z,11.48
2022-10-23T05:02:03.112Z,11.51
2022-10-23T05:04:29.651Z,11.55
2022-10-23T05:06:56.301Z,11.59
2022-10-23T05:09:24.629Z,11.52
2022-10-23T05:11:53.027Z,11.63
2022-10-23T05:14:22.681Z,11.61
2022-10-23T05:17:15.783Z,11.57
2022-10-23T05:19:46.546Z,11.55
2022-10-23T05:22:15.485Z,11.50
2022-10-23T05:24:46.943Z,11.51
2022-10-23T05:27:19.729Z,11.56
2022-10-23T05:29:46.595Z,11.69
2022-10-23T05:32:15.268Z,11.75
2022-10-23T05:34:42.809Z,11.80
2022-10-23T05:37:13.049Z,11.79
2022-10-23T05:39:44.292Z,11.70
2022-10-23T05:42:10.834Z,11.68
2022-10-23T05:44:37.439Z,11.67
2022-10-23T05:47:04.042Z,11.66
2022-10-23T05:49:30.580Z,11.66
2022-10-23T05:51:57.131Z,11.65
2022-10-23T05:54:23.782Z,11.60
2022-10-23T05:56:50.309Z,11.58
2022-10-23T05:59:20.420Z,11.55
2022-10-23T06:01:50.817Z,11.47
2022-10-23T06:04:28.098Z,11.40
2022-10-23T06:06:58.564Z,11.36
2022-10-23T06:09:25.406Z,11.30
2022-10-23T06:11:52.058Z,11.28
2022-10-23T06:14:18.582Z,11.33
2022-10-23T06:16:45.236Z,11.43
2022-10-23T06:19:12.738Z,11.52
2022-10-23T06:21:40.130Z,11.64
2022-10-23T06:24:07.512Z,11.70
2022-10-23T06:26:34.354Z,11.70
2022-10-23T06:29:00.983Z,11.75
2022-10-23T06:31:28.398Z,11.84
2022-10-23T06:33:58.151Z,12.08
2022-10-23T06:36:25.470Z,12.51
2022-10-23T06:38:52.352Z,12.75
2022-10-23T06:41:21.320Z,12.93
2022-10-23T06:43:49.872Z,12.63
2022-10-23T06:46:17.792Z,12.42
2022-10-23T06:48:46.823Z,12.20
2022-10-23T06:51:17.046Z,12.11
2022-10-23T06:53:44.582Z,12.15
2022-10-23T06:56:13.803Z,12.37
2022-10-23T06:58:42.563Z,12.67
2022-10-23T07:01:12.301Z,12.83
2022-10-23T07:03:39.123Z,13.35
2022-10-23T07:06:09.484Z,13.43
2022-10-23T07:08:37.013Z,13.06
2022-10-23T07:11:08.203Z,13.97
2022-10-23T07:13:36.435Z,14.30
2022-10-23T07:16:23.146Z,14.91
2022-10-23T07:18:58.674Z,15.40
2022-10-23T07:21:26.523Z,15.23
2022-10-23T07:23:53.052Z,15.71
2022-10-23T07:26:19.835Z,16.07
2022-10-23T07:28:50.299Z,16.40
2022-10-23T07:31:16.884Z,16.32
2022-10-23T07:33:45.710Z,15.59
2022-10-23T07:36:14.520Z,15.50
2022-10-23T07:38:41.309Z,15.17
2022-10-23T07:41:11.528Z,15.37
2022-10-23T07:43:39.815Z,15.92
2022-10-23T07:46:08.359Z,16.55
2022-10-23T07:48:34.818Z,16.49
2022-10-23T07:51:08.193Z,16.76
2022-10-23T07:53:35.898Z,16.56
2022-10-23T07:56:05.418Z,16.78
2022-10-23T07:58:33.617Z,17.09
2022-10-23T08:01:01.661Z,17.09
2022-10-23T08:03:30.702Z,17.23
2022-10-23T08:06:00.107Z,17.73
2022-10-23T08:08:27.253Z,17.57
2022-10-23T08:10:55.421Z,17.39
2022-10-23T08:13:28.909Z,16.89
2022-10-23T08:15:55.992Z,17.07
2022-10-23T08:18:22.588Z,17.13
2022-10-23T08:20:53.305Z,16.64
2022-10-23T08:23:20.284Z,16.48
2022-10-23T08:25:47.102Z,16.70
2022-10-23T08:28:15.404Z,16.72
2022-10-23T08:30:42.119Z,16.72
2022-10-23T08:33:09.329Z,16.60
2022-10-23T08:35:37.610Z,16.26
2022-10-23T08:38:04.952Z,16.09
2022-10-23T08:40:31.889Z,16.24
2022-10-23T08:43:21.775Z,16.22
2022-10-23T08:45:59.973Z,15.86
2022-10-23T08:48:33.321Z,15.69
2022-10-23T08:51:11.450Z,15.50
2022-10-23T08:53:52.939Z,15.44
2022-10-23T08:56:28.154Z,15.37
2022-10-23T08:59:02.569Z,15.06
2022-10-23T09:01:43.178Z,15.01
2022-10-23T09:04:14.530Z,15.02
2022-10-23T09:07:17.437Z,14.95
2022-10-23T09:09:50.468Z,15.03
2022-10-23T09:12:24.390Z,15.07
2022-10-23T09:15:17.141Z,15.18
2022-10-23T09:17:44.517Z,15.02
2022-10-23T09:20:14.406Z,15.11
2022-10-23T09:22:42.197Z,15.20
2022-10-23T09:25:18.344Z,15.33
2022-10-23T09:27:54.781Z,15.50
2022-10-23T09:30:36.288Z,15.71
2022-10-23T09:33:25.191Z,16.29
2022-10-23T09:36:04.317Z,16.13
2022-10-23T09:38:36.913Z,16.07
2022-10-23T09:41:13.202Z,16.04
2022-10-23T09:43:40.117Z,16.19
2022-10-23T09:46:07.466Z,16.33
2022-10-23T09:48:34.604Z,16.13
2022-10-23T09:51:04.022Z,16.39
2022-10-23T09:53:39.138Z,16.49
2022-10-23T09:56:28.591Z,16.77
2022-10-23T09:58:59.001Z,16.53
2022-10-23T10:01:28.917Z,16.50
2022-10-23T10:04:00.363Z,16.47
2022-10-23T10:06:30.016Z,16.40
2022-10-23T10:09:28.059Z,16.62
2022-10-23T10:11:59.274Z,16.72
2022-10-23T10:14:34.661Z,16.82
2022-10-23T10:17:04.590Z,16.61
2022-10-23T10:19:52.479Z,16.64
2022-10-23T10:22:39.480Z,17.00
2022-10-23T10:25:38.301Z,17.23
2022-10-23T10:28:29.707Z,17.44
2022-10-23T10:31:26.551Z,17.19
2022-10-23T10:34:20.563Z,17.29
2022-10-23T10:36:56.364Z,17.55
2022-10-23T10:39:31.897Z,17.74
2022-10-23T10:42:18.695Z,18.13
2022-10-23T10:44:50.246Z,18.53
2022-10-23T10:47:21.259Z,18.87
2022-10-23T10:50:07.775Z,18.69
2022-10-23T10:52:48.313Z,18.88
2022-10-23T10:55:28.341Z,19.41
2022-10-23T10:58:04.870Z,19.19
2022-10-23T11:00:34.051Z,18.73
2022-10-23T11:03:11.408Z,18.28
2022-10-23T11:05:45.327Z,18.00
2022-10-23T11:08:22.299Z,17.68
2022-10-23T11:10:53.597Z,17.56
2022-10-23T11:13:35.996Z,17.33
2022-10-23T11:16:10.394Z,17.26
2022-10-23T11:18:40.679Z,17.28
2022-10-23T11:21:20.684Z,17.29
2022-10-23T11:24:11.313Z,17.24
2022-10-23T11:26:47.139Z,17.23
2022-10-23T11:30:03.341Z,17.11
2022-10-23T11:32:42.435Z,17.03
2022-10-23T11:35:14.971Z,17.70
2022-10-23T11:37:41.914Z,17.98
2022-10-23T11:40:08.507Z,17.60
2022-10-23T11:42:41.029Z,17.36
2022-10-23T11:45:28.206Z,17.42
2022-10-23T11:48:14.049Z,17.12
2022-10-23T11:50:46.476Z,17.04
2022-10-23T11:53:24.960Z,17.06
2022-10-23T11:55:58.878Z,16.96
2022-10-23T11:58:40.998Z,16.93
2022-10-23T12:01:26.465Z,16.99
2022-10-23T12:03:58.314Z,17.09
2022-10-23T12:06:29.715Z,17.12
2022-10-23T12:09:01.848Z,17.06
2022-10-23T12:11:41.731Z,16.80
2022-10-23T12:14:32.704Z,16.53
2022-10-23T12:17:02.156Z,16.19
2022-10-23T12:19:31.142Z,15.96
2022-10-23T12:22:01.070Z,15.86
2022-10-23T12:24:48.746Z,15.81
2022-10-23T12:27:26.351Z,15.76
2022-10-23T12:30:11.421Z,15.74
2022-10-23T12:32:37.832Z,15.74
2022-10-23T12:35:18.288Z,15.73
2022-10-23T12:37:51.570Z,15.88
2022-10-23T12:40:18.408Z,16.02
2022-10-23T12:42:55.379Z,16.11
2022-10-23T12:45:26.907Z,16.15
2022-10-23T12:47:54.124Z,16.20
2022-10-23T12:50:20.740Z,16.28
2022-10-23T12:53:01.075Z,16.33
2022-10-23T12:55:33.603Z,16.32
2022-10-23T12:58:02.325Z,16.32
2022-10-23T13:00:29.436Z,16.31
2022-10-23T13:03:00.845Z,16.29
2022-10-23T13:05:30.334Z,16.16
2022-10-23T13:07:59.393Z,16.08
2022-10-23T13:10:26.539Z,16.04
2022-10-23T13:13:02.813Z,15.96
2022-10-23T13:15:40.789Z,15.93
2022-10-23T13:18:09.072Z,15.94
2022-10-23T13:20:55.600Z,15.97
2022-10-23T13:23:34.375Z,15.99
2022-10-23T13:26:05.313Z,16.14
2022-10-23T13:28:33.417Z,16.22
2022-10-23T13:31:02.972Z,16.37
2022-10-23T13:33:37.120Z,16.64
2022-10-23T13:36:15.301Z,16.57
2022-10-23T13:39:03.687Z,16.45
2022-10-23T13:41:36.932Z,16.56
2022-10-23T13:44:03.804Z,16.38
2022-10-23T13:46:32.641Z,16.16
2022-10-23T13:48:59.105Z,16.10
2022-10-23T13:51:28.618Z,16.02
2022-10-23T13:53:56.799Z,16.22
2022-10-23T13:56:25.593Z,16.28
2022-10-23T13:58:52.076Z,16.33
2022-10-23T14:01:40.213Z,16.48
2022-10-23T14:04:07.549Z,16.41
2022-10-23T14:06:34.352Z,16.32
2022-10-23T14:09:02.754Z,16.09
2022-10-23T14:11:29.292Z,15.93
2022-10-23T14:13:58.090Z,15.80
2022-10-23T14:16:24.728Z,15.86
2022-10-23T14:18:51.350Z,15.95
2022-10-23T14:21:20.198Z,15.99
2022-10-23T14:23:54.004Z,16.04
2022-10-23T14:26:27.489Z,16.15
2022-10-23T14:28:55.691Z,16.20
2022-10-23T14:31:22.988Z,16.20
2022-10-23T14:33:55.942Z,16.30
2022-10-23T14:36:23.675Z,16.39
2022-10-23T14:38:59.037Z,16.40
2022-10-23T14:41:26.623Z,16.35
2022-10-23T14:43:58.783Z,16.21
2022-10-23T14:46:25.851Z,16.08
2022-10-23T14:49:02.345Z,15.95
2022-10-23T14:51:30.576Z,15.87
2022-10-23T14:54:03.639Z,15.84
2022-10-23T14:56:32.728Z,15.87
2022-10-23T14:59:04.699Z,15.85
2022-10-23T15:01:33.645Z,15.81
2022-10-23T15:04:00.478Z,15.79
2022-10-23T15:06:29.454Z,15.76
2022-10-23T15:08:56.020Z,15.72
2022-10-23T15:11:24.182Z,15.61
2022-10-23T15:13:53.225Z,15.57
2022-10-23T15:16:20.530Z,15.62
2022-10-23T15:18:47.121Z,15.69
2022-10-23T15:21:14.804Z,15.71
2022-10-23T15:23:43.760Z,15.77
2022-10-23T15:26:21.763Z,15.81
2022-10-23T15:28:53.399Z,15.86
2022-10-23T15:31:35.683Z,15.87
2022-10-23T15:34:02.178Z,15.95
2022-10-23T15:36:28.904Z,15.93
2022-10-23T15:38:57.576Z,16.01
2022-10-23T15:41:29.367Z,16.21
2022-10-23T15:43:56.147Z,16.31
2022-10-23T15:46:22.834Z,16.44
2022-10-23T15:48:52.696Z,16.54
2022-10-23T15:51:19.557Z,16.61
2022-10-23T15:53:46.273Z,16.70
2022-10-23T15:56:12.918Z,16.70
2022-10-23T15:58:41.347Z,16.73
2022-10-23T16:01:08.172Z,16.72
2022-10-23T16:03:38.770Z,16.68
2022-10-23T16:06:07.281Z,16.61
2022-10-23T16:08:35.686Z,16.49
2022-10-23T16:11:03.182Z,16.45
2022-10-23T16:13:29.711Z,16.41
2022-10-23T16:15:59.961Z,16.36
2022-10-23T16:18:26.463Z,16.29
2022-10-23T16:20:55.555Z,16.25
2022-10-23T16:23:30.380Z,16.23
2022-10-23T16:25:56.847Z,16.23
2022-10-23T16:28:23.365Z,16.16
2022-10-23T16:30:50.097Z,16.11
2022-10-23T16:33:16.565Z,16.10
2022-10-23T16:35:43.393Z,16.06
2022-10-23T16:38:11.602Z,16.02
2022-10-23T16:40:38.097Z,16.00
2022-10-23T16:43:04.782Z,15.95
2022-10-23T16:45:34.397Z,15.91
2022-10-23T16:48:03.721Z,15.83
2022-10-23T16:50:30.340Z,15.79
2022-10-23T16:52:58.563Z,15.76
2022-10-23T16:55:25.035Z,15.78
2022-10-23T16:57:51.552Z,15.77
2022-10-23T17:00:24.354Z,15.73
2022-10-23T17:02:50.802Z,15.65
2022-10-23T17:05:17.316Z,15.62
2022-10-23T17:07:45.860Z,15.59
2022-10-23T17:10:14.838Z,15.58
2022-10-23T17:12:41.326Z,15.54
2022-10-23T17:15:08.878Z,15.49
2022-10-23T17:17:35.409Z,15.46
2022-10-23T17:20:01.880Z,15.45
2022-10-23T17:22:28.527Z,15.47
2022-10-23T17:24:55.002Z,15.46
2022-10-23T17:27:21.536Z,15.51
2022-10-23T17:29:49.764Z,15.59
2022-10-23T17:32:16.613Z,15.61
2022-10-23T17:34:43.122Z,15.68
2022-10-23T17:37:12.440Z,15.68
2022-10-23T17:39:40.464Z,15.72
2022-10-23T17:45:04.564Z,15.77
2022-10-23T17:47:31.068Z,15.87
2022-10-23T17:49:57.547Z,15.88
2022-10-23T17:52:24.078Z,15.88
2022-10-23T17:54:53.657Z,15.88
2022-10-23T17:57:27.594Z,15.94
2022-10-23T17:59:54.240Z,15.93
2022-10-23T18:02:20.830Z,15.91
2022-10-23T18:04:47.537Z,15.94
2022-10-23T18:07:15.656Z,15.92
2022-10-23T18:09:42.587Z,15.92
2022-10-23T18:12:12.725Z,15.95
2022-10-23T18:14:39.252Z,15.92
2022-10-23T18:17:05.792Z,15.91
2022-10-23T18:19:34.549Z,16.00
2022-10-23T18:22:01.017Z,16.14
2022-10-23T18:27:24.251Z,16.21
2022-10-23T18:29:51.109Z,16.28
2022-10-23T18:32:17.599Z,16.29
2022-10-23T18:34:44.206Z,16.26
2022-10-23T18:37:10.699Z,16.22
2022-10-23T18:39:37.416Z,16.18
2022-10-23T18:42:04.449Z,16.33
2022-10-23T18:44:30.978Z,16.67
2022-10-23T18:46:59.292Z,16.64
2022-10-23T18:49:28.495Z,16.82
2022-10-23T18:51:55.658Z,17.04
2022-10-23T18:54:22.261Z,17.70
2022-10-23T18:56:51.412Z,19.01
2022-10-23T18:59:20.356Z,19.79
2022-10-23T19:01:47.226Z,20.09
2022-10-23T19:04:15.957Z,20.17
2022-10-23T19:06:42.835Z,20.00
2022-10-23T19:09:13.685Z,20.05
2022-10-23T19:11:43.458Z,20.23
2022-10-23T19:14:10.235Z,20.28
2022-10-23T19:16:46.131Z,20.45
2022-10-23T19:19:21.327Z,20.49
2022-10-23T19:24:19.264Z,20.52
2022-10-23T19:26:46.211Z,20.43
2022-10-23T19:29:18.604Z,20.57
2022-10-23T19:31:49.283Z,20.65
2022-10-23T19:34:21.582Z,20.57
2022-10-23T19:36:48.697Z,20.54
2022-10-23T19:39:16.036Z,20.31
2022-10-23T19:41:43.080Z,20.40
2022-10-23T19:44:09.588Z,20.53
2022-10-23T19:46:37.208Z,20.63
2022-10-23T19:49:05.352Z,20.64
2022-10-23T19:51:32.590Z,20.61
2022-10-23T19:53:59.079Z,20.73
2022-10-23T19:56:27.830Z,20.73
2022-10-23T19:58:54.706Z,20.66
2022-10-23T20:01:24.497Z,20.49
2022-10-23T20:03:51.688Z,20.34
2022-10-23T20:06:24.836Z,20.32
2022-10-23T20:08:51.949Z,20.26
2022-10-23T20:11:25.484Z,20.13
2022-10-23T20:13:52.633Z,19.99
2022-10-23T20:16:21.602Z,19.98
2022-10-23T20:18:49.383Z,19.94
2022-10-23T20:21:16.275Z,19.91
2022-10-23T20:23:43.311Z,19.86
2022-10-23T20:26:12.995Z,19.78
2022-10-23T20:28:39.511Z,19.78
2022-10-23T20:31:08.539Z,19.82
2022-10-23T20:33:36.478Z,19.74
2022-10-23T20:36:04.479Z,19.69
2022-10-23T20:38:31.162Z,19.72
2022-10-23T20:41:00.508Z,19.68
2022-10-23T20:43:27.414Z,19.66
2022-10-23T20:45:53.969Z,19.55
2022-10-23T20:48:32.409Z,19.57
2022-10-23T20:51:02.913Z,19.58
2022-10-23T20:53:29.689Z,19.55
2022-10-23T20:55:58.189Z,19.55
2022-10-23T20:58:24.699Z,19.53
2022-10-23T21:03:27.271Z,19.40
2022-10-23T21:05:53.789Z,19.35
2022-10-23T21:08:20.235Z,19.36
2022-10-23T21:10:47.895Z,19.31
2022-10-23T21:13:14.397Z,19.29
2022-10-23T21:15:45.511Z,19.24
2022-10-23T21:18:26.418Z,19.29
2022-10-23T21:21:00.366Z,19.25
2022-10-23T21:23:28.890Z,19.30
2022-10-23T21:25:55.343Z,19.36
2022-10-23T21:28:21.848Z,19.42
2022-10-23T21:30:48.328Z,19.64
2022-10-23T21:33:14.789Z,19.69
2022-10-23T21:35:52.200Z,19.72
2022-10-23T21:38:25.556Z,19.75
2022-10-23T21:40:55.623Z,19.77
2022-10-23T21:43:22.188Z,19.71
2022-10-23T21:45:48.846Z,19.68
2022-10-23T21:48:15.305Z,19.55
2022-10-23T21:50:42.081Z,19.62
2022-10-23T21:53:10.346Z,19.48
2022-10-23T21:55:36.885Z,19.24
2022-10-23T21:58:03.398Z,19.06
2022-10-23T22:00:31.597Z,18.89
2022-10-23T22:03:00.045Z,18.97
2022-10-23T22:05:26.499Z,19.01
2022-10-23T22:07:53.026Z,19.10
2022-10-23T22:10:19.523Z,19.14
2022-10-23T22:12:46.017Z,19.35
2022-10-23T22:15:21.223Z,19.28
2022-10-23T22:17:47.726Z,19.42
2022-10-23T22:20:14.239Z,19.56
2022-10-23T22:22:40.753Z,19.51
2022-10-23T22:25:07.645Z,19.44
2022-10-23T22:27:34.428Z,19.59
2022-10-23T22:30:05.547Z,19.59
2022-10-23T22:32:32.098Z,19.55
2022-10-23T22:34:58.590Z,19.58
2022-10-23T22:37:29.789Z,19.62
2022-10-23T22:39:56.232Z,19.61
2022-10-23T22:42:22.710Z,19.74
2022-10-23T22:44:51.366Z,19.69
2022-10-23T22:47:17.887Z,19.83
2022-10-23T22:49:44.565Z,19.84
2022-10-23T22:52:12.781Z,19.83
2022-10-23T22:54:39.351Z,19.72
2022-10-23T22:57:05.830Z,19.67
2022-10-23T22:59:37.401Z,19.77
2022-10-23T23:02:04.102Z,19.89
2022-10-23T23:04:38.888Z,19.89
2022-10-23T23:07:12.387Z,19.99
2022-10-23T23:09:41.276Z,19.92
2022-10-23T23:12:09.391Z,20.07
2022-10-23T23:14:36.474Z,20.15
2022-10-23T23:17:03.677Z,20.13
2022-10-23T23:19:30.394Z,20.06
2022-10-23T23:22:03.943Z,19.95
2022-10-23T23:24:30.465Z,19.76
2022-10-23T23:26:57.014Z,19.58
2022-10-23T23:29:23.640Z,19.53
2022-10-23T23:31:53.560Z,19.47
2022-10-23T23:34:20.902Z,19.39
2022-10-23T23:36:47.516Z,19.37
2022-10-23T23:39:14.030Z,19.36
2022-10-23T23:41:40.475Z,19.31
2022-10-23T23:44:14.710Z,19.36
2022-10-23T23:46:41.211Z,19.36
2022-10-23T23:49:07.701Z,19.29
2022-10-23T23:51:34.394Z,19.39
2022-10-23T23:54:00.926Z,19.37
2022-10-23T23:56:28.152Z,19.31
2022-10-23T23:58:56.619Z,19.23
